createdAt,value
2022-08-29T00:04:23.249Z,16.70
2022-08-29T00:09:25.253Z,16.60
2022-08-29T00:14:27.181Z,16.50
2022-08-29T00:19:29.092Z,16.50
2022-08-29T00:24:30.926Z,16.60
2022-08-29T00:29:32.809Z,16.60
2022-08-29T00:34:34.701Z,16.70
2022-08-29T00:39:36.545Z,16.70
2022-08-29T00:44:38.389Z,16.70
2022-08-29T00:49:46.235Z,16.80
2022-08-29T00:54:52.083Z,16.90
2022-08-29T00:59:54.297Z,16.80
2022-08-29T01:04:56.158Z,16.90
2022-08-29T01:09:58.002Z,17.00
2022-08-29T01:15:07.533Z,17.00
2022-08-29T01:20:41.020Z,17.10
2022-08-29T01:25:49.104Z,17.10
2022-08-29T01:31:37.293Z,17.00
2022-08-29T01:36:45.142Z,17.00
2022-08-29T01:41:46.955Z,17.00
2022-08-29T01:46:51.161Z,17.00
2022-08-29T01:51:52.982Z,17.00
2022-08-29T01:56:55.007Z,17.00
2022-08-29T02:02:05.360Z,17.00
2022-08-29T02:07:12.022Z,17.00
2022-08-29T02:12:15.823Z,17.00
2022-08-29T02:17:18.597Z,17.10
2022-08-29T02:22:20.518Z,17.10
2022-08-29T02:27:22.377Z,17.00
2022-08-29T02:32:24.434Z,17.10
2022-08-29T02:37:27.739Z,17.00
2022-08-29T02:42:29.558Z,17.00
2022-08-29T02:47:36.513Z,17.10
2022-08-29T02:52:42.846Z,17.10
2022-08-29T02:57:45.843Z,17.10
2022-08-29T03:02:47.836Z,17.10
2022-08-29T03:07:51.040Z,17.10
2022-08-29T03:12:53.251Z,17.10
2022-08-29T03:17:55.274Z,17.00
2022-08-29T03:22:57.424Z,17.10
2022-08-29T03:27:59.825Z,17.10
2022-08-29T03:33:02.659Z,17.10
2022-08-29T03:38:04.910Z,17.10
2022-08-29T03:43:06.750Z,17.00
2022-08-29T03:48:08.805Z,17.00
2022-08-29T03:53:10.960Z,17.00
2022-08-29T03:58:13.017Z,17.10
2022-08-29T04:03:15.232Z,17.20
2022-08-29T04:08:17.129Z,17.10
2022-08-29T04:13:18.954Z,17.10
2022-08-29T04:18:21.617Z,17.10
2022-08-29T04:23:24.412Z,17.10
2022-08-29T04:28:26.319Z,17.10
2022-08-29T04:33:28.176Z,17.20
2022-08-29T04:38:30.023Z,17.10
2022-08-29T04:43:31.865Z,17.00
2022-08-29T04:48:33.813Z,17.00
2022-08-29T04:53:35.630Z,17.10
2022-08-29T04:58:43.570Z,17.10
2022-08-29T05:03:46.203Z,17.10
2022-08-29T05:08:48.154Z,17.20
2022-08-29T05:14:02.596Z,17.30
2022-08-29T05:19:06.213Z,17.30
2022-08-29T05:24:09.997Z,17.40
2022-08-29T05:29:13.231Z,17.40
2022-08-29T05:34:33.804Z,17.40
2022-08-29T05:39:38.939Z,17.30
2022-08-29T05:44:40.825Z,17.40
2022-08-29T05:49:44.153Z,17.40
2022-08-29T05:54:46.885Z,17.40
2022-08-29T05:59:50.469Z,17.40
2022-08-29T06:04:52.882Z,17.50
2022-08-29T06:09:54.794Z,17.60
2022-08-29T06:15:06.073Z,17.70
2022-08-29T06:20:09.829Z,17.70
2022-08-29T06:25:37.511Z,17.80
2022-08-29T06:30:34.135Z,17.90
2022-08-29T06:35:36.691Z,17.90
2022-08-29T06:40:38.590Z,17.90
2022-08-29T06:45:44.449Z,18.00
2022-08-29T06:50:46.286Z,18.00
2022-08-29T06:55:48.414Z,18.10
2022-08-29T07:00:50.276Z,18.20
2022-08-29T07:05:55.197Z,18.20
2022-08-29T07:10:57.146Z,18.20
2022-08-29T07:15:59.041Z,18.30
2022-08-29T07:21:04.576Z,18.30
2022-08-29T07:26:13.557Z,18.30
2022-08-29T07:31:15.461Z,18.40
2022-08-29T07:36:17.434Z,18.40
2022-08-29T07:41:19.851Z,18.50
2022-08-29T07:46:22.178Z,18.60
2022-08-29T07:51:24.266Z,18.60
2022-08-29T07:56:37.104Z,18.60
2022-08-29T08:01:40.473Z,18.70
2022-08-29T08:06:43.334Z,18.80
2022-08-29T08:11:45.578Z,18.90
2022-08-29T08:16:47.424Z,19.20
2022-08-29T08:21:50.259Z,19.40
2022-08-29T08:26:52.254Z,19.80
2022-08-29T08:31:55.845Z,20.00
2022-08-29T08:36:57.666Z,20.20
2022-08-29T08:42:11.999Z,20.40
2022-08-29T08:47:16.370Z,20.50
2022-08-29T08:52:27.884Z,20.60
2022-08-29T08:57:41.027Z,20.70
2022-08-29T09:02:58.411Z,20.90
2022-08-29T09:08:06.420Z,21.00
2022-08-29T09:13:38.652Z,21.10
2022-08-29T09:18:44.383Z,21.20
2022-08-29T09:23:57.582Z,21.30
2022-08-29T09:28:59.438Z,21.30
2022-08-29T09:34:02.950Z,21.30
2022-08-29T09:39:22.602Z,21.40
2022-08-29T09:44:34.716Z,21.30
2022-08-29T09:49:39.887Z,21.40
2022-08-29T09:54:42.536Z,21.30
2022-08-29T09:59:48.118Z,21.30
2022-08-29T10:05:00.083Z,21.50
2022-08-29T10:10:20.005Z,21.60
2022-08-29T10:15:51.824Z,21.90
2022-08-29T10:21:07.701Z,22.00
2022-08-29T10:26:52.826Z,22.20
2022-08-29T10:32:18.586Z,22.40
2022-08-29T10:37:29.114Z,22.30
2022-08-29T10:42:33.276Z,22.20
2022-08-29T10:48:01.391Z,22.20
2022-08-29T10:53:09.307Z,22.30
2022-08-29T10:58:20.029Z,22.10
2022-08-29T11:04:03.117Z,22.00
2022-08-29T11:09:18.656Z,21.90
2022-08-29T11:14:44.558Z,21.90
2022-08-29T11:20:17.845Z,21.90
2022-08-29T11:25:20.924Z,22.00
2022-08-29T11:30:39.878Z,22.00
2022-08-29T11:36:02.384Z,22.10
2022-08-29T11:41:27.987Z,22.10
2022-08-29T11:46:42.532Z,22.40
2022-08-29T11:51:44.724Z,22.90
2022-08-29T11:56:46.539Z,23.00
2022-08-29T12:01:57.564Z,23.10
2022-08-29T12:07:02.115Z,23.30
2022-08-29T12:12:21.770Z,23.80
2022-08-29T12:17:24.664Z,24.10
2022-08-29T12:22:46.741Z,24.30
2022-08-29T12:28:06.907Z,23.80
2022-08-29T12:33:49.102Z,23.50
2022-08-29T12:39:03.671Z,23.10
2022-08-29T12:44:12.841Z,23.00
2022-08-29T12:49:25.704Z,22.90
2022-08-29T12:54:39.407Z,23.20
2022-08-29T12:59:45.209Z,23.20
2022-08-29T13:04:47.050Z,23.10
2022-08-29T13:10:18.609Z,23.00
2022-08-29T13:15:32.910Z,22.90
2022-08-29T13:20:38.178Z,23.00
2022-08-29T13:25:52.101Z,23.10
2022-08-29T13:31:26.001Z,23.20
2022-08-29T13:36:27.925Z,23.30
2022-08-29T13:41:30.130Z,23.30
2022-08-29T13:46:32.253Z,23.30
2022-08-29T13:51:34.108Z,23.20
2022-08-29T14:07:05.843Z,23.30
2022-08-29T14:12:08.689Z,23.40
2022-08-29T14:17:18.592Z,23.60
2022-08-29T14:22:20.640Z,23.50
2022-08-29T14:27:22.807Z,23.50
2022-08-29T14:32:26.823Z,23.50
2022-08-29T14:37:29.121Z,23.60
2022-08-29T14:42:30.956Z,23.60
2022-08-29T14:47:32.922Z,23.60
2022-08-29T14:52:34.972Z,23.60
2022-08-29T14:57:36.862Z,23.40
2022-08-29T15:02:39.626Z,23.30
2022-08-29T15:07:41.620Z,23.30
2022-08-29T15:12:43.577Z,23.20
2022-08-29T15:17:45.597Z,23.20
2022-08-29T15:22:47.441Z,23.00
2022-08-29T15:27:49.298Z,22.90
2022-08-29T15:32:52.200Z,22.90
2022-08-29T15:37:54.439Z,22.80
2022-08-29T15:42:56.376Z,22.70
2022-08-29T15:48:00.146Z,22.60
2022-08-29T15:53:01.977Z,22.60
2022-08-29T15:58:04.865Z,22.50
2022-08-29T16:03:07.712Z,22.50
2022-08-29T16:08:11.057Z,22.40
2022-08-29T16:13:18.513Z,22.40
2022-08-29T16:18:20.478Z,22.30
2022-08-29T16:23:22.331Z,22.20
2022-08-29T16:28:24.192Z,22.20
2022-08-29T16:33:26.114Z,22.10
2022-08-29T16:38:28.388Z,22.10
2022-08-29T16:43:30.211Z,21.90
2022-08-29T16:48:32.047Z,21.90
2022-08-29T16:53:38.578Z,21.70
2022-08-29T16:58:59.544Z,21.60
2022-08-29T17:04:03.598Z,21.40
2022-08-29T17:09:08.721Z,21.10
2022-08-29T17:14:12.180Z,21.00
2022-08-29T17:19:15.078Z,20.80
2022-08-29T17:24:17.363Z,20.60
2022-08-29T17:29:19.411Z,20.40
2022-08-29T17:34:21.225Z,20.30
2022-08-29T17:39:23.051Z,20.10
2022-08-29T17:44:25.580Z,20.10
2022-08-29T17:49:27.742Z,19.90
2022-08-29T17:54:29.662Z,19.80
2022-08-29T17:59:34.461Z,19.60
2022-08-29T18:04:36.380Z,19.40
2022-08-29T18:09:38.257Z,19.30
2022-08-29T18:14:40.210Z,19.20
2022-08-29T18:19:42.019Z,19.20
2022-08-29T18:24:43.836Z,19.10
2022-08-29T18:29:45.909Z,19.00
2022-08-29T18:34:48.412Z,19.00
2022-08-29T18:39:50.321Z,18.90
2022-08-29T18:44:52.321Z,18.80
2022-08-29T18:50:12.606Z,18.70
2022-08-29T18:55:15.784Z,18.60
2022-08-29T19:00:18.846Z,18.60
2022-08-29T19:05:22.033Z,18.50
2022-08-29T19:10:26.499Z,18.40
2022-08-29T19:15:29.579Z,18.10
2022-08-29T19:20:49.892Z,18.10
2022-08-29T19:25:51.881Z,18.00
2022-08-29T19:30:53.809Z,18.00
2022-08-29T19:35:55.858Z,18.00
2022-08-29T19:40:59.184Z,17.90
2022-08-29T19:46:02.184Z,17.90
2022-08-29T19:51:12.950Z,17.90
2022-08-29T19:56:14.917Z,17.80
2022-08-29T20:01:17.499Z,17.80
2022-08-29T20:06:20.636Z,17.70
2022-08-29T20:11:25.305Z,17.60
2022-08-29T20:16:30.590Z,17.70
2022-08-29T20:21:34.329Z,17.50
2022-08-29T20:26:37.106Z,17.40
2022-08-29T20:31:39.401Z,17.30
2022-08-29T20:37:00.423Z,17.20
2022-08-29T20:42:02.446Z,17.10
2022-08-29T20:47:06.405Z,17.00
2022-08-29T20:52:10.082Z,17.00
2022-08-29T20:57:12.939Z,17.00
2022-08-29T21:02:17.019Z,17.00
2022-08-29T21:07:20.565Z,17.00
2022-08-29T21:12:22.617Z,16.90
2022-08-29T21:17:29.465Z,16.90
2022-08-29T21:22:31.294Z,16.90
2022-08-29T21:27:33.115Z,16.90
2022-08-29T21:32:34.964Z,16.90
2022-08-29T21:37:36.975Z,16.90
2022-08-29T21:42:39.869Z,16.90
2022-08-29T21:47:42.365Z,16.90
2022-08-29T21:52:45.237Z,16.70
2022-08-29T21:57:59.324Z,16.70
2022-08-29T22:03:04.581Z,16.70
2022-08-29T22:08:06.879Z,16.70
2022-08-29T22:13:09.057Z,16.60
2022-08-29T22:18:14.773Z,16.60
2022-08-29T22:23:19.951Z,16.70
2022-08-29T22:28:23.086Z,16.70
2022-08-29T22:33:24.926Z,16.60
2022-08-29T22:38:26.789Z,16.50
2022-08-29T22:43:28.682Z,16.60
2022-08-29T22:48:30.527Z,16.50
2022-08-29T22:53:32.369Z,16.40
2022-08-29T22:58:36.309Z,16.40
2022-08-29T23:03:38.362Z,16.30
2022-08-29T23:08:40.410Z,16.20
2022-08-29T23:13:43.246Z,16.20
2022-08-29T23:18:45.446Z,16.20
2022-08-29T23:23:47.382Z,15.90
2022-08-29T23:28:49.657Z,16.00
2022-08-29T23:33:53.630Z,16.00
2022-08-29T23:38:55.481Z,15.80
2022-08-29T23:43:58.382Z,16.00
2022-08-29T23:49:00.364Z,16.00
2022-08-29T23:54:02.289Z,16.00
2022-08-29T23:59:04.418Z,16.00
